Latest Weather Observations for Melbourne Airport

IDV60801

Issued at 7:32 am EDT Wednesday 24 October 2018 (issued every 10 minutes, with the page automatically refreshed every 10 minutes)

About weather observations | Map of weather stations | Latest weather observations for VIC | Other Formats
Station Details ID: 086282 Name: MELBOURNE AIRPORT Lat: -37.67 Lon: 144.83 Height: 113.4 m
Data from the previous 72 hours. | See also: Recent months at Melbourne Airport
Date/Time
EDT
Temp
°C
App
Temp
°C
Dew
Point
°C
Rel
Hum
%
Delta-T
°C
Wind Press
QNH
hPa
Press
MSL
hPa
Rain since
9am
mm
Dir  Spd
km/h
Gust
km/h
Spd
kts
Gust
kts
24/07:00am 5.1 1.9 3.2 87 0.8 WSW 9 13 5 7 1022.8 1022.8 0.0
24/06:30am 5.0 1.8 2.8 86 0.9 WSW 9 13 5 7 1022.5 1022.5 0.0
24/06:00am 5.4 2.6 3.0 84 1.0 W 7 9 4 5 1022.1 1022.1 0.0
24/05:30am 5.5 2.3 3.3 86 0.9 WSW 9 13 5 7 1021.8 1021.8 0.0
24/05:00am 6.4 2.9 3.6 82 1.2 WSW 11 13 6 7 1021.6 1021.6 0.0
24/04:30am 5.6 1.7 3.5 86 0.9 WSW 13 15 7 8 1021.4 1021.4 0.0
24/04:00am 5.9 2.1 3.8 86 0.9 WSW 13 17 7 9 1021.4 1021.4 0.0
24/03:30am 6.1 2.2 3.5 83 1.1 WSW 13 17 7 9 1021.5 1021.5 0.0
24/03:00am 6.4 2.2 3.6 82 1.2 WSW 15 19 8 10 1021.4 1021.4 0.0
24/02:30am 5.9 2.1 3.8 86 0.9 W 13 15 7 8 1021.5 1021.5 0.0
24/02:00am 6.6 2.4 3.8 82 1.2 W 15 17 8 9 1021.5 1021.5 0.0
24/01:30am 6.5 3.1 3.9 83 1.1 WSW 11 13 6 7 1021.6 1021.6 0.0
24/01:00am 6.8 3.0 3.8 81 1.3 WSW 13 15 7 8 1021.8 1021.8 0.0
24/12:30am 7.0 3.5 3.5 78 1.5 WSW 11 13 6 7 1021.8 1021.8 0.0
24/12:00am 8.3 4.4 3.4 71 2.1 WSW 13 15 7 8 1021.8 1021.8 0.0
 
Date/Time
EDT
Temp
°C
App
Temp
°C
Dew
Point
°C
Rel
Hum
%
Delta-T
°C
Wind Press
QNH
hPa
Press
MSL
hPa
Rain since
9am
mm
Dir  Spd
km/h
Gust
km/h
Spd
kts
Gust
kts
23/11:30pm 8.7 4.7 3.1 68 2.4 SW 13 19 7 10 1021.6 1021.6 0.0
23/11:00pm 9.1 4.8 3.0 65 2.6 SSW 15 17 8 9 1021.2 1021.1 0.0
23/10:30pm 11.8 5.5 1.7 50 4.3 SW 24 30 13 16 1021.3 1021.2 0.0
23/10:00pm 12.3 9.0 4.4 58 3.6 SSW 11 15 6 8 1021.2 1021.1 0.0
23/09:30pm 12.3 7.3 4.7 60 3.5 S 20 26 11 14 1020.5 1020.4 0.0
23/09:00pm 12.5 6.9 5.2 61 3.4 SSE 24 30 13 16 1020.3 1020.2 0.0
23/08:30pm 12.5 8.0 6.2 65 3.0 S 19 26 10 14 1020.0 1019.9 0.0
23/08:00pm 12.7 6.5 6.2 64 3.1 S 28 35 15 19 1019.4 1019.3 0.0
23/07:30pm 13.2 8.2 6.3 63 3.3 SSE 22 30 12 16 1018.8 1018.7 0.0
23/07:00pm 13.4 8.6 7.3 66 3.0 SSE 22 30 12 16 1018.1 1018.0 0.0
23/06:30pm 13.5 8.2 6.9 64 3.2 S 24 33 13 18 1017.4 1017.4 0.0
23/06:00pm 13.6 7.7 7.5 66 3.0 SSE 28 33 15 18 1016.9 1016.9 0.0
23/05:30pm 13.4 6.6 7.7 68 2.8 SSE 33 41 18 22 1016.2 1016.2 0.0
23/05:00pm 15.3 9.0 7.5 59 3.9 SSE 30 33 16 18 1015.7 1015.7 0.0
23/04:30pm 15.7 9.8 7.5 58 4.1 SSE 28 37 15 20 1015.2 1015.2 0.0
23/04:00pm 16.7 9.8 7.3 54 4.7 SSE 33 44 18 24 1014.8 1014.8 0.0
23/03:30pm 17.7 12.7 8.2 53 4.9 SSE 24 35 13 19 1014.2 1014.1 0.0
23/03:00pm 16.8 10.8 7.0 52 4.9 S 28 37 15 20 1014.0 1013.9 0.0
23/02:30pm 18.1 12.6 5.7 44 6.1 SSE 24 33 13 18 1014.0 1013.9 0.0
23/02:00pm 17.6 12.9 6.0 46 5.7 S 20 28 11 15 1014.1 1014.0 0.0
23/01:30pm 17.0 12.4 8.0 55 4.6 S 22 30 12 16 1014.1 1014.0 0.0
23/01:00pm 17.0 11.6 6.5 50 5.2 SSW 24 33 13 18 1014.2 1014.1 0.0
23/12:30pm 17.0 12.6 7.2 52 4.9 SSW 20 35 11 19 1014.1 1014.0 0.0
23/12:00pm 16.4 11.2 7.2 54 4.6 SSW 24 33 13 18 1014.2 1014.1 0.0
23/11:30am 16.1 11.9 8.2 59 4.0 SSW 20 28 11 15 1014.2 1014.1 0.0
23/11:00am 15.7 10.8 8.4 62 3.7 SW 24 30 13 16 1014.2 1014.1 0.0
23/10:30am 15.0 10.2 7.3 60 3.8 SW 22 32 12 17 1014.0 1013.9 0.0
23/10:00am 14.2 10.5 10.0 76 2.2 SW 20 30 11 16 1014.0 1013.9 0.0
23/09:30am 14.0 11.8 10.8 81 1.7 SW 13 20 7 11 1014.0 1013.9 0.0
23/09:00am 13.4 11.1 10.5 82 1.5 WSW 13 17 7 9 1014.0 1013.9 0.0
23/08:30am 13.2 11.7 10.5 84 1.4 WSW 9 17 5 9 1012.7 1012.6 0.0
23/08:00am 12.8 12.0 10.9 88 1.0 W 6 9 3 5 1012.0 1011.9 0.0
23/07:30am 12.1 10.2 10.6 90 0.8 WSW 11 13 6 7 1012.6 1012.5 0.0
23/07:00am 11.5 10.4 10.1 91 0.7 SW 6 13 3 7 1012.0 1011.9 0.0
23/06:55am 11.3 9.6 9.9 91 0.7 SW 9 13 5 7 1011.1 1011.0 0.0
23/06:30am 10.7 8.9 9.5 92 0.6 W 9 13 5 7 1012.0 1011.9 0.0
23/06:00am 10.5 8.7 9.3 92 0.6 W 9 13 5 7 1011.5 1011.4 0.0
23/05:30am 11.1 9.7 9.7 91 0.7 NNE 7 11 4 6 1010.4 1010.3 0.0
23/05:00am 10.9 8.7 9.5 91 0.7 N 11 11 6 6 1010.7 1010.6 0.0
23/04:30am 10.4 7.8 9.2 92 0.6 N 13 15 7 8 1010.7 1010.6 0.0
23/04:00am 9.6 6.1 8.6 93 0.5 N 17 19 9 10 1011.1 1011.0 0.0
23/03:30am 9.4 7.3 8.2 92 0.6 N 9 9 5 5 1011.9 1011.8 0.0
23/03:00am 10.2 8.6 8.8 91 0.7 W 7 9 4 5 1012.2 1012.1 0.0
23/02:30am 11.3 9.2 9.7 90 0.8 NE 11 24 6 13 1012.0 1011.9 0.0
23/02:00am 10.5 8.6 9.1 91 0.7 NNE 9 11 5 6 1012.1 1012.0 0.0
23/01:30am 12.7 12.8 10.0 84 1.4 CALM 0 0 0 0 1012.1 1012.0 0.0
23/01:00am 11.6 10.2 9.4 86 1.1 WSW 7 9 4 5 1012.4 1012.3 0.0
23/12:30am 13.1 11.0 9.8 80 1.7 SW 11 17 6 9 1012.7 1012.6 0.0
23/12:00am 14.5 10.6 9.5 72 2.6 SW 20 30 11 16 1012.9 1012.8 0.0
 
Date/Time
EDT
Temp
°C
App
Temp
°C
Dew
Point
°C
Rel
Hum
%
Delta-T
°C
Wind Press
QNH
hPa
Press
MSL
hPa
Rain since
9am
mm
Dir  Spd
km/h
Gust
km/h
Spd
kts
Gust
kts
22/11:30pm 15.1 9.3 9.5 69 2.9 SW 30 48 16 26 1011.8 1011.7 0.0
22/11:24pm 16.2 10.6 8.8 61 3.8 WSW 28 48 15 26 1011.9 1011.8 0.0
22/11:00pm 18.9 12.0 2.8 34 7.5 NW 28 41 15 22 1011.0 1010.9 0.0
22/10:54pm 20.5 12.0 0.6 26 9.0 N 35 54 19 29 1010.2 1010.1 0.0
22/10:30pm 20.2 11.8 1.5 28 8.6 N 35 43 19 23 1009.7 1009.6 0.0
22/10:00pm 20.6 12.9 2.2 29 8.6 NNE 32 46 17 25 1010.1 1010.0 0.0
22/09:30pm 20.8 12.6 2.6 30 8.6 NNE 35 50 19 27 1010.2 1010.1 0.0
22/09:14pm 21.5 13.5 1.8 27 9.2 NNE 33 56 18 30 1010.3 1010.2 0.0
22/09:00pm 21.4 13.1 2.3 28 9.0 NNE 35 43 19 23 1010.1 1010.0 0.0
22/08:42pm 21.3 14.1 2.8 29 8.8 NNE 30 48 16 26 1010.1 1010.0 0.0
22/08:30pm 21.2 14.1 3.6 31 8.5 NNE 30 41 16 22 1010.1 1010.0 0.0
22/08:00pm 21.6 15.4 4.2 32 8.5 NNE 26 35 14 19 1010.0 1009.9 0.0
22/07:30pm 22.5 16.3 4.5 31 8.9 NNE 26 33 14 18 1010.1 1010.0 0.0
22/07:00pm 24.0 16.9 3.7 26 10.0 NNE 30 39 16 21 1010.0 1009.9 0.0
22/06:30pm 25.2 18.6 4.3 26 10.5 NNE 28 37 15 20 1009.9 1009.8 0.0
22/06:00pm 25.8 18.7 3.5 23 11.1 NNE 30 41 16 22 1009.8 1009.7 0.0
22/05:30pm 26.6 18.7 2.2 20 11.9 N 33 44 18 24 1009.9 1009.8 0.0
22/05:00pm 26.6 19.3 2.2 20 11.9 N 30 41 16 22 1010.1 1010.0 0.0
22/04:33pm 25.9 17.5 3.6 23 11.1 N 37 56 20 30 1010.3 1010.2 0.0
22/04:30pm 25.6 16.8 3.7 24 10.9 N 39 56 21 30 1010.3 1010.2 0.0
22/04:00pm 26.3 17.3 2.7 21 11.6 N 39 52 21 28 1010.3 1010.2 0.0
22/03:30pm 25.3 15.4 2.5 22 11.1 N 44 57 24 31 1010.8 1010.7 0.0
22/03:18pm 25.0 17.0 3.6 25 10.6 N 35 54 19 29 1011.0 1010.9 0.0
22/03:00pm 24.9 15.2 2.7 23 10.8 N 43 54 23 29 1011.2 1011.1 0.0
22/02:30pm 25.4 16.4 4.6 26 10.5 N 41 54 22 29 1011.5 1011.4 0.0
22/02:00pm 25.4 16.3 5.9 28 10.1 NNW 43 56 23 30 1012.0 1011.9 0.0
22/01:30pm 24.3 14.3 4.5 27 9.9 N 46 57 25 31 1012.2 1012.1 0.0
22/01:00pm 24.1 14.5 3.5 26 10.1 N 43 56 23 30 1012.4 1012.3 0.0
22/12:30pm 23.9 15.0 3.2 26 10.1 NNW 39 54 21 29 1012.8 1012.7 0.0
22/12:25pm 23.3 14.7 2.4 25 10.0 NNW 37 56 20 30 1012.8 1012.7 0.0
22/12:00pm 23.5 13.2 2.7 25 10.0 N 46 57 25 31 1013.2 1013.1 0.0
22/11:30am 22.6 12.9 3.1 28 9.4 N 43 57 23 31 1013.3 1013.2 0.0
22/11:00am 20.8 11.7 6.1 38 7.4 N 43 57 23 31 1013.6 1013.5 0.0
22/10:51am 20.6 11.0 6.1 39 7.3 N 46 65 25 35 1013.6 1013.5 0.0
22/10:30am 20.0 10.7 6.0 40 7.0 N 44 57 24 31 1013.7 1013.6 0.0
22/10:00am 19.2 10.6 6.4 43 6.4 N 41 57 22 31 1013.8 1013.7 0.0
22/09:57am 19.0 10.8 6.4 43 6.3 N 39 57 21 31 1013.8 1013.7 0.0
22/09:30am 17.0 8.1 7.0 51 5.0 N 43 52 23 28 1013.8 1013.7 0.0
22/09:00am 16.7 8.6 6.8 52 4.9 N 39 52 21 28 1013.9 1013.8 0.0
22/08:44am 15.8 7.6 6.7 54 4.5 N 39 57 21 31 1014.0 1013.9 0.0
22/08:30am 15.2 6.9 5.9 54 4.5 N 39 50 21 27 1014.1 1014.0 0.0
22/08:00am 13.5 6.0 6.4 62 3.4 N 35 44 19 24 1014.3 1014.3 0.0
22/07:30am 12.4 4.9 6.1 65 3.0 N 35 43 19 23 1014.4 1014.4 0.0
22/07:00am 11.5 4.4 5.7 67 2.7 N 32 39 17 21 1014.3 1014.3 0.0
22/06:30am 11.5 6.8 5.2 65 2.9 N 19 26 10 14 1014.2 1014.1 0.0
22/06:00am 10.2 5.9 5.2 71 2.3 N 17 22 9 12 1014.1 1014.0 0.0
22/05:30am 9.8 5.2 5.4 74 2.0 N 19 20 10 11 1014.1 1014.0 0.0
22/05:00am 9.9 5.0 5.3 73 2.1 N 20 22 11 12 1014.3 1014.3 0.0
22/04:30am 9.1 4.4 5.1 76 1.8 N 19 24 10 13 1014.3 1014.3 0.0
22/04:00am 9.5 4.8 5.1 74 2.0 N 19 22 10 12 1014.5 1014.5 0.0
22/03:30am 7.9 3.2 5.2 83 1.2 N 19 20 10 11 1014.7 1014.7 0.0
22/03:00am 8.1 4.3 5.9 86 1.0 N 15 19 8 10 1014.9 1014.9 0.0
22/02:30am 8.2 4.5 6.5 89 0.8 N 15 19 8 10 1015.1 1015.1 0.0
22/02:00am 8.5 5.4 7.2 91 0.6 N 13 15 7 8 1015.3 1015.3 0.0
22/01:30am 8.9 6.0 8.1 95 0.4 N 13 15 7 8 1015.8 1015.8 0.0
22/01:00am 9.5 7.1 8.5 93 0.5 N 11 13 6 7 1016.2 1016.2 0.0
22/12:30am 9.7 7.4 8.9 95 0.4 N 11 13 6 7 1016.5 1016.5 0.0
22/12:00am 9.6 7.6 8.8 95 0.4 NNW 9 9 5 5 1016.7 1016.7 0.0
 
Date/Time
EDT
Temp
°C
App
Temp
°C
Dew
Point
°C
Rel
Hum
%
Delta-T
°C
Wind Press
QNH
hPa
Press
MSL
hPa
Rain since
9am
mm
Dir  Spd
km/h
Gust
km/h
Spd
kts
Gust
kts
21/11:30pm 10.2 8.3 9.0 92 0.6 WNW 9 11 5 6 1017.0 1017.0 0.0
21/11:00pm 10.7 8.9 9.3 91 0.7 W 9 9 5 5 1017.2 1017.2 0.0
21/10:30pm 10.5 8.5 8.5 87 1.0 WSW 9 11 5 6 1017.4 1017.4 0.0
21/10:00pm 11.2 9.6 8.6 84 1.3 SW 7 11 4 6 1017.5 1017.5 0.0
21/09:30pm 12.8 10.0 7.0 68 2.8 S 11 15 6 8 1017.2 1017.2 0.0
21/09:00pm 13.4 10.8 6.1 61 3.5 E 9 13 5 7 1017.1 1017.1 0.0
21/08:30pm 14.5 11.3 5.2 53 4.4 E 11 13 6 7 1017.0 1017.0 0.0
21/08:00pm 15.6 11.8 4.0 46 5.4 E 13 17 7 9 1016.9 1016.9 0.0
21/07:30pm 16.3 12.5 3.8 43 5.8 E 13 22 7 12 1016.7 1016.7 0.0
21/07:00pm 17.3 12.7 3.6 40 6.4 E 17 24 9 13 1016.4 1016.4 0.0
21/06:30pm 17.8 14.0 4.1 40 6.5 E 13 17 7 9 1016.4 1016.4 0.0
21/06:00pm 18.1 15.5 4.2 39 6.6 NE 7 13 4 7 1016.7 1016.7 0.0
21/05:30pm 18.2 15.4 5.0 41 6.4 NE 9 15 5 8 1016.6 1016.6 0.0
21/05:00pm 18.2 15.3 4.7 41 6.5 ENE 9 15 5 8 1016.7 1016.7 0.0
21/04:30pm 18.2 15.8 5.2 42 6.3 SE 7 15 4 8 1017.0 1017.0 0.0
21/04:00pm 17.5 14.8 5.6 45 5.8 S 9 15 5 8 1017.3 1017.3 0.0
21/03:30pm 17.6 13.7 5.5 45 5.9 SSE 15 24 8 13 1017.8 1017.8 0.0
21/03:00pm 17.3 14.5 5.0 44 5.9 S 9 17 5 9 1018.3 1018.2 0.0
21/02:30pm 16.6 13.5 5.4 47 5.4 ESE 11 15 6 8 1018.8 1018.7 0.0
21/02:00pm 16.4 12.7 6.2 51 5.0 SSE 15 22 8 12 1019.3 1019.2 0.0
21/01:30pm 16.3 13.0 4.4 45 5.6 SW 11 22 6 12 1019.6 1019.5 0.0
21/01:00pm 16.1 12.8 4.7 46 5.4 SW 11 17 6 9 1019.7 1019.6 0.0
21/12:30pm 15.8 12.2 4.8 48 5.2 S 13 19 7 10 1020.0 1019.9 0.0
21/12:00pm 15.5 12.4 5.7 52 4.7 SSE 11 15 6 8 1020.2 1020.1 0.0
21/11:30am 15.6 12.4 6.9 56 4.3 SSW 13 19 7 10 1020.6 1020.5 0.0
21/11:00am 14.3 10.8 7.2 62 3.5 SSW 15 20 8 11 1020.7 1020.6 0.0
21/10:30am 14.1 10.8 8.1 67 3.0 SSW 15 22 8 12 1020.7 1020.6 0.0
21/10:00am 13.8 11.0 8.4 70 2.7 SW 13 17 7 9 1020.7 1020.6 0.0
21/09:30am 13.1 10.9 9.2 77 2.0 WSW 11 17 6 9 1020.6 1020.5 0.0
21/09:00am 12.1 9.0 8.9 81 1.6 SW 15 19 8 10 1020.5 1020.4 14.0
21/08:30am 11.6 9.3 9.0 84 1.3 WSW 11 15 6 8 1020.3 1020.2 14.0
21/08:00am 10.5 8.5 8.5 87 1.0 W 9 13 5 7 1020.0 1019.9 14.0

Other Formats:

Comma delimited format used in spreadsheet applications
http://www.bom.gov.au/fwo/IDV60801/IDV60801.94866.axf

JavaScript Object Notation format (JSON) in row-major order
http://www.bom.gov.au/fwo/IDV60801/IDV60801.94866.json